Warning: Javascript must be enabled to use all the features on this page!


Page Loading - Please Wait...

* We've detected you're using a mobile device. Find our Next Generation Station Page here.
Click to hideNews Bulletins

Peak Streamflow for the Nation

USGS 06879650 KINGS C NR MANHATTAN, KS

Riley County, Kansas
Hydrologic Unit Code 10270101
Latitude  39°06'07.47", Longitude  96°35'40.88" NAD83
Drainage area 4.44  square miles
Contributing drainage area 4.44  square miles
Gage datum 1,095.23 feet above NAVD88
Output formats
Table
Graph
Tab-separated file
peakfq (watstore) format
Reselect output format
Water
Year
Date Gage
Height
(feet)
Stream-
flow
(cfs)
1980 1980-03-29 5.64 242
1981 1981-06-27 6.67 482
1982 1982-07-01 11.28 4,530
1983 1983-05-20 5.12 128
1984 1984-06-15 5.30 160
1985 1985-06-21 6.11 362
1986 1985-10-09 5.94 312
1987 1986-10-03 5.86 290
1988 1988-04-02 3.99 12.0
1989 1989-09-08 6.07 350
1990 1990-03-13 5.78 268
1991 1991-05-27 4.49 47.0
1992 1992-07-22 12.05 5,800
1993 1993-07-17 13.12 8,220
1994 1994-05-14 4.72 87.0
1995 1995-05-13 13.98 10,200
1996 1996-05-26 7.59 867
1997 1996-11-16 5.51 254
1998 1998-07-30 6.02 371
1999 1999-06-28 8.47 1,330
2000 2000-07-04 4.66 45.0
2001 2001-06-20 9.46 2,180
2002 2002-05-05 5.90 342
2003 2003-06-29 5.72 379
2004 2004-07-02 12.00 5,860
2005 2005-06-04 10.61 3,770
2006 2006-08-25 4.90 84.0
2007 2007-05-06 8.96 1,970
2008 2008-06-02 7.68 1,030
2009 2009-04-26 9.84 2,850
2010 2010-04-22 6.24 416
2011 2011-06-02 7.13 768
2012 2012-03-22 4.12 10.0
2013 2013-08-12 5.03 113
2014 2014-04-27 7.55 975
2015 2015-06-05 7.09 749
2016 2016-04-26 12.33 6,500
2017 2017-04-04 6.355 4102
2018 2017-10-01   0.00
2019 2019-08-30 10.835 4,2802
2020 2020-05-25 8.99 2,070
2021 2021-05-16 8.02 1,280
2022 2022-06-24 8.38 1,550
2023 2023-05-09 4.28 20.4
?
  Peak Gage-Height Qualification Codes.
?
  Peak Streamflow Qualification Codes.